sensor_id;sensor_type;location;lat;lon;timestamp;P1;durP1;ratioP1;P2;durP2;ratioP2
55993;SDS011;67425;52.126;20.638;2023-12-20T00:00:15;23.42;;;12.82;;
55993;SDS011;67425;52.126;20.638;2023-12-20T00:02:41;23.30;;;12.23;;
55993;SDS011;67425;52.126;20.638;2023-12-20T00:05:10;23.45;;;13.52;;
55993;SDS011;67425;52.126;20.638;2023-12-20T00:07:35;25.52;;;12.30;;
55993;SDS011;67425;52.126;20.638;2023-12-20T00:10:00;22.23;;;11.98;;
55993;SDS011;67425;52.126;20.638;2023-12-20T00:12:26;21.13;;;12.38;;
55993;SDS011;67425;52.126;20.638;2023-12-20T00:14:51;18.10;;;11.07;;
55993;SDS011;67425;52.126;20.638;2023-12-20T00:17:16;20.77;;;12.00;;
55993;SDS011;67425;52.126;20.638;2023-12-20T00:19:42;23.60;;;12.68;;
55993;SDS011;67425;52.126;20.638;2023-12-20T00:22:07;24.27;;;11.52;;
55993;SDS011;67425;52.126;20.638;2023-12-20T00:24:32;21.65;;;11.30;;
55993;SDS011;67425;52.126;20.638;2023-12-20T00:26:58;28.83;;;12.00;;
55993;SDS011;67425;52.126;20.638;2023-12-20T00:29:23;16.27;;;9.60;;
55993;SDS011;67425;52.126;20.638;2023-12-20T00:31:48;19.48;;;11.57;;
55993;SDS011;67425;52.126;20.638;2023-12-20T00:34:13;18.92;;;10.57;;
55993;SDS011;67425;52.126;20.638;2023-12-20T00:36:39;19.80;;;10.60;;
55993;SDS011;67425;52.126;20.638;2023-12-20T00:39:04;18.50;;;11.35;;
55993;SDS011;67425;52.126;20.638;2023-12-20T00:41:30;24.77;;;12.35;;
55993;SDS011;67425;52.126;20.638;2023-12-20T00:43:55;16.58;;;10.45;;
55993;SDS011;67425;52.126;20.638;2023-12-20T00:46:21;18.80;;;10.20;;
55993;SDS011;67425;52.126;20.638;2023-12-20T00:48:46;20.90;;;11.18;;
55993;SDS011;67425;52.126;20.638;2023-12-20T00:51:11;18.63;;;10.38;;
55993;SDS011;67425;52.126;20.638;2023-12-20T00:53:37;16.73;;;9.95;;
55993;SDS011;67425;52.126;20.638;2023-12-20T00:56:02;18.45;;;10.95;;
55993;SDS011;67425;52.126;20.638;2023-12-20T00:58:28;18.40;;;11.55;;
55993;SDS011;67425;52.126;20.638;2023-12-20T01:00:53;17.15;;;10.90;;
55993;SDS011;67425;52.126;20.638;2023-12-20T01:03:18;19.40;;;10.98;;
55993;SDS011;67425;52.126;20.638;2023-12-20T01:05:44;25.08;;;11.55;;
55993;SDS011;67425;52.126;20.638;2023-12-20T01:08:09;22.90;;;11.23;;
55993;SDS011;67425;52.126;20.638;2023-12-20T01:10:35;16.08;;;10.63;;
55993;SDS011;67425;52.126;20.638;2023-12-20T01:13:00;20.85;;;11.95;;
55993;SDS011;67425;52.126;20.638;2023-12-20T01:15:25;14.82;;;9.45;;
55993;SDS011;67425;52.126;20.638;2023-12-20T01:17:51;17.05;;;9.15;;
55993;SDS011;67425;52.126;20.638;2023-12-20T01:20:16;20.15;;;10.68;;
55993;SDS011;67425;52.126;20.638;2023-12-20T01:22:42;19.27;;;10.15;;
55993;SDS011;67425;52.126;20.638;2023-12-20T01:25:08;17.77;;;10.50;;
55993;SDS011;67425;52.126;20.638;2023-12-20T01:27:33;13.90;;;8.15;;
55993;SDS011;67425;52.126;20.638;2023-12-20T01:29:58;18.13;;;9.80;;
55993;SDS011;67425;52.126;20.638;2023-12-20T01:32:24;16.08;;;9.07;;
55993;SDS011;67425;52.126;20.638;2023-12-20T01:34:49;15.20;;;9.60;;
55993;SDS011;67425;52.126;20.638;2023-12-20T01:37:14;15.13;;;9.23;;
55993;SDS011;67425;52.126;20.638;2023-12-20T01:39:40;19.20;;;10.07;;
55993;SDS011;67425;52.126;20.638;2023-12-20T01:42:05;15.93;;;9.55;;
55993;SDS011;67425;52.126;20.638;2023-12-20T01:44:30;20.17;;;9.30;;
55993;SDS011;67425;52.126;20.638;2023-12-20T01:46:56;19.38;;;9.98;;
55993;SDS011;67425;52.126;20.638;2023-12-20T01:49:22;17.23;;;10.20;;
55993;SDS011;67425;52.126;20.638;2023-12-20T01:51:47;17.40;;;9.50;;
55993;SDS011;67425;52.126;20.638;2023-12-20T01:54:13;15.02;;;8.85;;
55993;SDS011;67425;52.126;20.638;2023-12-20T01:56:38;15.77;;;8.80;;
55993;SDS011;67425;52.126;20.638;2023-12-20T01:59:05;16.45;;;9.25;;
55993;SDS011;67425;52.126;20.638;2023-12-20T02:01:32;17.58;;;9.60;;
55993;SDS011;67425;52.126;20.638;2023-12-20T02:03:57;20.13;;;8.77;;
55993;SDS011;67425;52.126;20.638;2023-12-20T02:06:24;14.85;;;9.82;;
55993;SDS011;67425;52.126;20.638;2023-12-20T02:08:54;15.65;;;9.50;;
55993;SDS011;67425;52.126;20.638;2023-12-20T02:11:19;15.35;;;9.82;;
55993;SDS011;67425;52.126;20.638;2023-12-20T02:13:46;16.83;;;9.55;;
55993;SDS011;67425;52.126;20.638;2023-12-20T02:16:11;16.20;;;9.73;;
55993;SDS011;67425;52.126;20.638;2023-12-20T02:18:37;19.58;;;10.90;;
55993;SDS011;67425;52.126;20.638;2023-12-20T02:21:04;28.55;;;10.77;;
55993;SDS011;67425;52.126;20.638;2023-12-20T02:23:30;16.33;;;9.43;;
55993;SDS011;67425;52.126;20.638;2023-12-20T02:25:55;14.30;;;8.95;;
55993;SDS011;67425;52.126;20.638;2023-12-20T02:28:21;15.30;;;8.88;;
55993;SDS011;67425;52.126;20.638;2023-12-20T02:30:47;13.98;;;8.25;;
55993;SDS011;67425;52.126;20.638;2023-12-20T02:33:14;13.65;;;8.90;;
55993;SDS011;67425;52.126;20.638;2023-12-20T02:35:40;13.55;;;8.55;;
55993;SDS011;67425;52.126;20.638;2023-12-20T02:38:05;13.70;;;8.15;;
55993;SDS011;67425;52.126;20.638;2023-12-20T02:40:31;24.65;;;11.65;;
55993;SDS011;67425;52.126;20.638;2023-12-20T02:42:57;17.73;;;9.30;;
55993;SDS011;67425;52.126;20.638;2023-12-20T02:45:22;16.25;;;9.15;;
55993;SDS011;67425;52.126;20.638;2023-12-20T02:47:47;10.73;;;7.95;;
55993;SDS011;67425;52.126;20.638;2023-12-20T02:50:13;12.18;;;8.07;;
55993;SDS011;67425;52.126;20.638;2023-12-20T02:52:38;14.13;;;8.20;;
55993;SDS011;67425;52.126;20.638;2023-12-20T02:55:03;15.07;;;8.32;;
55993;SDS011;67425;52.126;20.638;2023-12-20T02:57:29;18.02;;;8.43;;
55993;SDS011;67425;52.126;20.638;2023-12-20T02:59:54;12.25;;;8.13;;
55993;SDS011;67425;52.126;20.638;2023-12-20T03:02:20;14.63;;;8.95;;
55993;SDS011;67425;52.126;20.638;2023-12-20T03:04:45;11.75;;;8.00;;
55993;SDS011;67425;52.126;20.638;2023-12-20T03:07:10;9.65;;;8.43;;
55993;SDS011;67425;52.126;20.638;2023-12-20T03:09:37;10.65;;;8.88;;
55993;SDS011;67425;52.126;20.638;2023-12-20T03:12:02;11.82;;;8.10;;
55993;SDS011;67425;52.126;20.638;2023-12-20T03:14:28;10.10;;;6.53;;
55993;SDS011;67425;52.126;20.638;2023-12-20T03:16:53;9.02;;;6.60;;
55993;SDS011;67425;52.126;20.638;2023-12-20T03:19:18;16.30;;;8.23;;
55993;SDS011;67425;52.126;20.638;2023-12-20T03:21:44;11.43;;;6.40;;
55993;SDS011;67425;52.126;20.638;2023-12-20T03:24:10;7.78;;;5.45;;
55993;SDS011;67425;52.126;20.638;2023-12-20T03:26:35;11.20;;;6.85;;
55993;SDS011;67425;52.126;20.638;2023-12-20T03:29:00;10.07;;;6.50;;
55993;SDS011;67425;52.126;20.638;2023-12-20T03:31:26;9.52;;;6.63;;
55993;SDS011;67425;52.126;20.638;2023-12-20T03:33:51;10.02;;;6.20;;
55993;SDS011;67425;52.126;20.638;2023-12-20T03:36:18;7.75;;;5.72;;
55993;SDS011;67425;52.126;20.638;2023-12-20T03:38:44;15.00;;;11.45;;
55993;SDS011;67425;52.126;20.638;2023-12-20T03:41:09;11.05;;;8.48;;
55993;SDS011;67425;52.126;20.638;2023-12-20T03:43:34;11.77;;;6.72;;
55993;SDS011;67425;52.126;20.638;2023-12-20T03:46:00;8.20;;;6.32;;
55993;SDS011;67425;52.126;20.638;2023-12-20T03:48:25;8.57;;;5.72;;
55993;SDS011;67425;52.126;20.638;2023-12-20T03:50:51;13.32;;;5.22;;
55993;SDS011;67425;52.126;20.638;2023-12-20T03:53:16;6.95;;;5.30;;
55993;SDS011;67425;52.126;20.638;2023-12-20T03:55:41;7.03;;;5.20;;
55993;SDS011;67425;52.126;20.638;2023-12-20T03:58:07;8.25;;;5.38;;
55993;SDS011;67425;52.126;20.638;2023-12-20T04:00:32;4.68;;;4.28;;
55993;SDS011;67425;52.126;20.638;2023-12-20T04:02:57;15.15;;;9.07;;
55993;SDS011;67425;52.126;20.638;2023-12-20T04:05:23;9.75;;;6.63;;
55993;SDS011;67425;52.126;20.638;2023-12-20T04:07:48;9.98;;;6.55;;
55993;SDS011;67425;52.126;20.638;2023-12-20T04:10:15;10.77;;;5.80;;
55993;SDS011;67425;52.126;20.638;2023-12-20T04:12:40;11.25;;;5.25;;
55993;SDS011;67425;52.126;20.638;2023-12-20T04:15:06;10.35;;;5.57;;
55993;SDS011;67425;52.126;20.638;2023-12-20T04:17:34;10.45;;;5.22;;
55993;SDS011;67425;52.126;20.638;2023-12-20T04:20:00;8.05;;;4.93;;
55993;SDS011;67425;52.126;20.638;2023-12-20T04:22:26;7.57;;;5.90;;
55993;SDS011;67425;52.126;20.638;2023-12-20T04:24:51;8.30;;;5.65;;
55993;SDS011;67425;52.126;20.638;2023-12-20T04:27:16;8.25;;;5.70;;
55993;SDS011;67425;52.126;20.638;2023-12-20T04:29:42;10.02;;;7.28;;
55993;SDS011;67425;52.126;20.638;2023-12-20T04:32:07;7.55;;;6.25;;
55993;SDS011;67425;52.126;20.638;2023-12-20T04:34:33;13.13;;;8.35;;
55993;SDS011;67425;52.126;20.638;2023-12-20T04:36:58;13.57;;;7.72;;
55993;SDS011;67425;52.126;20.638;2023-12-20T04:39:23;9.85;;;7.05;;
55993;SDS011;67425;52.126;20.638;2023-12-20T04:41:49;9.65;;;5.47;;
55993;SDS011;67425;52.126;20.638;2023-12-20T04:44:15;10.90;;;6.78;;
55993;SDS011;67425;52.126;20.638;2023-12-20T04:46:40;8.55;;;6.07;;
55993;SDS011;67425;52.126;20.638;2023-12-20T04:49:05;7.72;;;6.10;;
55993;SDS011;67425;52.126;20.638;2023-12-20T04:51:34;8.00;;;6.00;;
55993;SDS011;67425;52.126;20.638;2023-12-20T04:54:00;18.63;;;13.70;;
55993;SDS011;67425;52.126;20.638;2023-12-20T04:56:26;9.70;;;7.45;;
55993;SDS011;67425;52.126;20.638;2023-12-20T04:58:51;11.65;;;8.95;;
55993;SDS011;67425;52.126;20.638;2023-12-20T05:01:16;12.77;;;8.07;;
55993;SDS011;67425;52.126;20.638;2023-12-20T05:03:42;10.60;;;6.72;;
55993;SDS011;67425;52.126;20.638;2023-12-20T05:06:07;13.68;;;7.15;;
55993;SDS011;67425;52.126;20.638;2023-12-20T05:08:33;9.65;;;6.63;;
55993;SDS011;67425;52.126;20.638;2023-12-20T05:10:58;11.98;;;6.25;;
55993;SDS011;67425;52.126;20.638;2023-12-20T05:13:23;7.80;;;6.43;;
55993;SDS011;67425;52.126;20.638;2023-12-20T05:15:49;12.50;;;5.88;;
55993;SDS011;67425;52.126;20.638;2023-12-20T05:18:14;5.55;;;5.00;;
55993;SDS011;67425;52.126;20.638;2023-12-20T05:20:40;5.78;;;4.70;;
55993;SDS011;67425;52.126;20.638;2023-12-20T05:23:05;7.78;;;6.47;;
55993;SDS011;67425;52.126;20.638;2023-12-20T05:25:31;6.47;;;5.28;;
55993;SDS011;67425;52.126;20.638;2023-12-20T05:27:57;9.32;;;6.00;;
55993;SDS011;67425;52.126;20.638;2023-12-20T05:30:22;20.45;;;8.98;;
55993;SDS011;67425;52.126;20.638;2023-12-20T05:32:48;9.02;;;5.53;;
55993;SDS011;67425;52.126;20.638;2023-12-20T05:35:13;10.15;;;6.05;;
55993;SDS011;67425;52.126;20.638;2023-12-20T05:37:40;8.25;;;5.32;;
55993;SDS011;67425;52.126;20.638;2023-12-20T05:40:05;7.68;;;5.53;;
55993;SDS011;67425;52.126;20.638;2023-12-20T05:42:31;6.60;;;5.53;;
55993;SDS011;67425;52.126;20.638;2023-12-20T05:44:56;6.70;;;5.53;;
55993;SDS011;67425;52.126;20.638;2023-12-20T05:47:22;8.02;;;5.95;;
55993;SDS011;67425;52.126;20.638;2023-12-20T05:49:47;8.98;;;7.20;;
55993;SDS011;67425;52.126;20.638;2023-12-20T05:52:12;8.52;;;7.40;;
55993;SDS011;67425;52.126;20.638;2023-12-20T05:54:38;13.13;;;8.18;;
55993;SDS011;67425;52.126;20.638;2023-12-20T05:57:03;8.85;;;6.32;;
55993;SDS011;67425;52.126;20.638;2023-12-20T05:59:29;9.10;;;7.00;;
55993;SDS011;67425;52.126;20.638;2023-12-20T06:01:54;11.98;;;6.82;;
55993;SDS011;67425;52.126;20.638;2023-12-20T06:04:19;9.52;;;7.55;;
55993;SDS011;67425;52.126;20.638;2023-12-20T06:06:45;11.82;;;7.22;;
55993;SDS011;67425;52.126;20.638;2023-12-20T06:09:10;12.43;;;7.45;;
55993;SDS011;67425;52.126;20.638;2023-12-20T06:11:36;13.18;;;8.18;;
55993;SDS011;67425;52.126;20.638;2023-12-20T06:14:01;13.35;;;7.70;;
55993;SDS011;67425;52.126;20.638;2023-12-20T06:16:26;12.52;;;7.20;;
55993;SDS011;67425;52.126;20.638;2023-12-20T06:18:52;16.00;;;7.68;;
55993;SDS011;67425;52.126;20.638;2023-12-20T06:21:17;12.95;;;7.90;;
55993;SDS011;67425;52.126;20.638;2023-12-20T06:23:43;12.32;;;7.15;;
55993;SDS011;67425;52.126;20.638;2023-12-20T06:26:08;11.90;;;7.07;;
55993;SDS011;67425;52.126;20.638;2023-12-20T06:28:34;9.38;;;6.65;;
55993;SDS011;67425;52.126;20.638;2023-12-20T06:30:59;11.85;;;7.68;;
55993;SDS011;67425;52.126;20.638;2023-12-20T06:33:25;10.05;;;6.70;;
55993;SDS011;67425;52.126;20.638;2023-12-20T06:35:51;11.68;;;7.40;;
55993;SDS011;67425;52.126;20.638;2023-12-20T06:38:17;10.35;;;6.57;;
55993;SDS011;67425;52.126;20.638;2023-12-20T06:40:43;12.43;;;7.75;;
55993;SDS011;67425;52.126;20.638;2023-12-20T06:43:08;6.68;;;5.90;;
55993;SDS011;67425;52.126;20.638;2023-12-20T06:45:34;11.73;;;7.43;;
55993;SDS011;67425;52.126;20.638;2023-12-20T06:47:59;8.73;;;7.30;;
55993;SDS011;67425;52.126;20.638;2023-12-20T06:50:25;12.27;;;7.32;;
55993;SDS011;67425;52.126;20.638;2023-12-20T06:52:50;11.15;;;7.40;;
55993;SDS011;67425;52.126;20.638;2023-12-20T06:55:16;16.15;;;9.07;;
55993;SDS011;67425;52.126;20.638;2023-12-20T06:57:42;12.35;;;7.32;;
55993;SDS011;67425;52.126;20.638;2023-12-20T07:00:10;10.23;;;7.10;;
55993;SDS011;67425;52.126;20.638;2023-12-20T07:02:36;12.40;;;7.65;;
55993;SDS011;67425;52.126;20.638;2023-12-20T07:05:01;12.95;;;7.13;;
55993;SDS011;67425;52.126;20.638;2023-12-20T07:07:27;12.18;;;6.97;;
55993;SDS011;67425;52.126;20.638;2023-12-20T07:09:52;8.18;;;6.07;;
55993;SDS011;67425;52.126;20.638;2023-12-20T07:12:18;6.82;;;6.07;;
55993;SDS011;67425;52.126;20.638;2023-12-20T07:14:44;10.57;;;7.90;;
55993;SDS011;67425;52.126;20.638;2023-12-20T07:17:10;8.63;;;7.00;;
55993;SDS011;67425;52.126;20.638;2023-12-20T07:19:38;9.88;;;7.13;;
55993;SDS011;67425;52.126;20.638;2023-12-20T07:22:04;8.38;;;6.32;;
55993;SDS011;67425;52.126;20.638;2023-12-20T07:24:30;11.23;;;7.22;;
55993;SDS011;67425;52.126;20.638;2023-12-20T07:26:56;9.85;;;5.60;;
55993;SDS011;67425;52.126;20.638;2023-12-20T07:29:21;8.40;;;5.95;;
55993;SDS011;67425;52.126;20.638;2023-12-20T07:31:47;8.63;;;5.60;;
55993;SDS011;67425;52.126;20.638;2023-12-20T07:34:12;7.88;;;5.15;;
55993;SDS011;67425;52.126;20.638;2023-12-20T07:36:37;7.32;;;6.38;;
55993;SDS011;67425;52.126;20.638;2023-12-20T07:39:03;6.40;;;5.00;;
55993;SDS011;67425;52.126;20.638;2023-12-20T07:41:28;11.10;;;8.43;;
55993;SDS011;67425;52.126;20.638;2023-12-20T07:43:53;7.00;;;5.38;;
55993;SDS011;67425;52.126;20.638;2023-12-20T07:46:20;10.52;;;6.88;;
55993;SDS011;67425;52.126;20.638;2023-12-20T07:48:47;8.85;;;5.57;;
55993;SDS011;67425;52.126;20.638;2023-12-20T07:51:13;12.35;;;6.80;;
55993;SDS011;67425;52.126;20.638;2023-12-20T07:53:38;10.35;;;6.50;;
55993;SDS011;67425;52.126;20.638;2023-12-20T07:56:13;16.67;;;6.95;;
55993;SDS011;67425;52.126;20.638;2023-12-20T07:58:43;13.27;;;7.90;;
55993;SDS011;67425;52.126;20.638;2023-12-20T08:01:10;18.58;;;8.10;;
55993;SDS011;67425;52.126;20.638;2023-12-20T08:03:37;15.13;;;7.03;;
55993;SDS011;67425;52.126;20.638;2023-12-20T08:06:03;13.52;;;7.32;;
55993;SDS011;67425;52.126;20.638;2023-12-20T08:08:28;13.23;;;7.78;;
55993;SDS011;67425;52.126;20.638;2023-12-20T08:10:54;11.50;;;7.55;;
55993;SDS011;67425;52.126;20.638;2023-12-20T08:13:19;9.30;;;6.65;;
55993;SDS011;67425;52.126;20.638;2023-12-20T08:15:44;18.45;;;7.05;;
55993;SDS011;67425;52.126;20.638;2023-12-20T08:18:10;10.10;;;6.43;;
55993;SDS011;67425;52.126;20.638;2023-12-20T08:20:36;7.07;;;5.65;;
55993;SDS011;67425;52.126;20.638;2023-12-20T08:23:01;9.10;;;6.13;;
55993;SDS011;67425;52.126;20.638;2023-12-20T08:25:26;11.65;;;7.30;;
55993;SDS011;67425;52.126;20.638;2023-12-20T08:27:52;9.85;;;6.65;;
55993;SDS011;67425;52.126;20.638;2023-12-20T08:30:18;10.43;;;6.93;;
55993;SDS011;67425;52.126;20.638;2023-12-20T08:32:46;7.28;;;5.13;;
55993;SDS011;67425;52.126;20.638;2023-12-20T08:35:12;7.47;;;5.68;;
55993;SDS011;67425;52.126;20.638;2023-12-20T08:37:38;13.25;;;5.55;;
55993;SDS011;67425;52.126;20.638;2023-12-20T08:40:03;6.03;;;5.03;;
55993;SDS011;67425;52.126;20.638;2023-12-20T08:42:29;7.68;;;5.20;;
55993;SDS011;67425;52.126;20.638;2023-12-20T08:44:56;10.63;;;5.40;;
55993;SDS011;67425;52.126;20.638;2023-12-20T08:47:23;6.25;;;5.00;;
55993;SDS011;67425;52.126;20.638;2023-12-20T08:49:49;10.40;;;6.82;;
55993;SDS011;67425;52.126;20.638;2023-12-20T08:52:14;10.55;;;5.85;;
55993;SDS011;67425;52.126;20.638;2023-12-20T08:54:39;9.32;;;5.95;;
55993;SDS011;67425;52.126;20.638;2023-12-20T08:57:05;7.65;;;5.20;;
55993;SDS011;67425;52.126;20.638;2023-12-20T08:59:32;9.30;;;5.40;;
55993;SDS011;67425;52.126;20.638;2023-12-20T09:01:57;6.88;;;5.90;;
55993;SDS011;67425;52.126;20.638;2023-12-20T09:04:23;5.10;;;4.60;;
55993;SDS011;67425;52.126;20.638;2023-12-20T09:06:48;5.47;;;4.47;;
55993;SDS011;67425;52.126;20.638;2023-12-20T09:09:13;8.45;;;6.28;;
55993;SDS011;67425;52.126;20.638;2023-12-20T09:11:39;10.57;;;6.30;;
55993;SDS011;67425;52.126;20.638;2023-12-20T09:14:05;11.35;;;6.78;;
55993;SDS011;67425;52.126;20.638;2023-12-20T09:16:30;10.43;;;5.82;;
55993;SDS011;67425;52.126;20.638;2023-12-20T09:18:56;10.60;;;6.05;;
55993;SDS011;67425;52.126;20.638;2023-12-20T09:21:22;12.00;;;6.68;;
55993;SDS011;67425;52.126;20.638;2023-12-20T09:23:47;8.32;;;5.95;;
55993;SDS011;67425;52.126;20.638;2023-12-20T09:26:12;10.18;;;6.18;;
55993;SDS011;67425;52.126;20.638;2023-12-20T09:28:38;9.40;;;5.95;;
55993;SDS011;67425;52.126;20.638;2023-12-20T09:31:05;11.77;;;6.45;;
55993;SDS011;67425;52.126;20.638;2023-12-20T09:33:31;10.43;;;6.90;;
55993;SDS011;67425;52.126;20.638;2023-12-20T09:35:57;6.53;;;5.05;;
55993;SDS011;67425;52.126;20.638;2023-12-20T09:38:22;8.63;;;6.40;;
55993;SDS011;67425;52.126;20.638;2023-12-20T09:40:48;9.60;;;6.45;;
55993;SDS011;67425;52.126;20.638;2023-12-20T09:43:14;7.35;;;5.60;;
55993;SDS011;67425;52.126;20.638;2023-12-20T09:45:41;9.13;;;5.65;;
55993;SDS011;67425;52.126;20.638;2023-12-20T09:48:10;8.35;;;5.85;;
55993;SDS011;67425;52.126;20.638;2023-12-20T09:50:36;10.75;;;5.55;;
55993;SDS011;67425;52.126;20.638;2023-12-20T09:53:01;12.18;;;5.78;;
55993;SDS011;67425;52.126;20.638;2023-12-20T09:55:29;10.63;;;5.13;;
55993;SDS011;67425;52.126;20.638;2023-12-20T09:57:57;6.13;;;5.45;;
55993;SDS011;67425;52.126;20.638;2023-12-20T10:00:22;8.55;;;6.28;;
55993;SDS011;67425;52.126;20.638;2023-12-20T10:02:55;7.40;;;5.25;;
55993;SDS011;67425;52.126;20.638;2023-12-20T10:05:31;8.02;;;5.95;;
55993;SDS011;67425;52.126;20.638;2023-12-20T10:07:57;9.57;;;6.10;;
55993;SDS011;67425;52.126;20.638;2023-12-20T10:10:24;6.28;;;5.15;;
55993;SDS011;67425;52.126;20.638;2023-12-20T10:13:05;11.68;;;6.35;;
55993;SDS011;67425;52.126;20.638;2023-12-20T10:15:34;6.70;;;5.13;;
55993;SDS011;67425;52.126;20.638;2023-12-20T10:18:01;10.13;;;4.60;;
55993;SDS011;67425;52.126;20.638;2023-12-20T10:20:27;5.80;;;5.13;;
55993;SDS011;67425;52.126;20.638;2023-12-20T10:22:57;7.18;;;4.78;;
55993;SDS011;67425;52.126;20.638;2023-12-20T10:25:23;16.15;;;7.15;;
55993;SDS011;67425;52.126;20.638;2023-12-20T10:27:50;8.75;;;4.80;;
55993;SDS011;67425;52.126;20.638;2023-12-20T10:30:22;6.28;;;4.47;;
55993;SDS011;67425;52.126;20.638;2023-12-20T10:32:49;4.90;;;4.35;;
55993;SDS011;67425;52.126;20.638;2023-12-20T10:35:16;4.47;;;3.95;;
55993;SDS011;67425;52.126;20.638;2023-12-20T10:37:41;5.60;;;4.72;;
55993;SDS011;67425;52.126;20.638;2023-12-20T10:40:07;10.70;;;4.82;;
55993;SDS011;67425;52.126;20.638;2023-12-20T10:42:33;5.18;;;4.10;;
55993;SDS011;67425;52.126;20.638;2023-12-20T10:45:01;6.22;;;4.38;;
55993;SDS011;67425;52.126;20.638;2023-12-20T10:47:26;7.88;;;5.22;;
55993;SDS011;67425;52.126;20.638;2023-12-20T10:49:52;6.32;;;5.07;;
55993;SDS011;67425;52.126;20.638;2023-12-20T10:52:19;8.85;;;7.68;;
55993;SDS011;67425;52.126;20.638;2023-12-20T10:54:48;6.78;;;5.38;;
55993;SDS011;67425;52.126;20.638;2023-12-20T10:57:13;9.90;;;6.10;;
55993;SDS011;67425;52.126;20.638;2023-12-20T10:59:40;8.30;;;6.13;;
55993;SDS011;67425;52.126;20.638;2023-12-20T11:02:07;8.32;;;6.07;;
55993;SDS011;67425;52.126;20.638;2023-12-20T11:04:37;7.30;;;5.40;;
55993;SDS011;67425;52.126;20.638;2023-12-20T11:10:00;13.68;;;6.03;;
55993;SDS011;67425;52.126;20.638;2023-12-20T11:12:49;8.95;;;7.05;;
55993;SDS011;67425;52.126;20.638;2023-12-20T11:15:16;12.65;;;8.80;;
55993;SDS011;67425;52.126;20.638;2023-12-20T11:17:44;8.90;;;6.03;;
55993;SDS011;67425;52.126;20.638;2023-12-20T11:20:11;8.43;;;5.45;;
55993;SDS011;67425;52.126;20.638;2023-12-20T11:22:37;9.25;;;5.82;;
55993;SDS011;67425;52.126;20.638;2023-12-20T11:25:05;7.55;;;6.35;;
55993;SDS011;67425;52.126;20.638;2023-12-20T11:27:35;7.68;;;5.25;;
55993;SDS011;67425;52.126;20.638;2023-12-20T11:30:03;7.95;;;5.50;;
55993;SDS011;67425;52.126;20.638;2023-12-20T11:32:32;9.50;;;5.70;;
55993;SDS011;67425;52.126;20.638;2023-12-20T11:35:00;6.00;;;4.32;;
55993;SDS011;67425;52.126;20.638;2023-12-20T11:37:42;8.82;;;5.65;;
55993;SDS011;67425;52.126;20.638;2023-12-20T11:40:13;7.72;;;5.13;;
55993;SDS011;67425;52.126;20.638;2023-12-20T11:45:09;7.82;;;4.50;;
55993;SDS011;67425;52.126;20.638;2023-12-20T11:47:35;8.43;;;5.03;;
55993;SDS011;67425;52.126;20.638;2023-12-20T11:50:01;10.77;;;5.38;;
55993;SDS011;67425;52.126;20.638;2023-12-20T11:52:28;8.50;;;4.20;;
55993;SDS011;67425;52.126;20.638;2023-12-20T11:54:54;7.38;;;5.47;;
55993;SDS011;67425;52.126;20.638;2023-12-20T11:57:20;6.22;;;4.68;;
55993;SDS011;67425;52.126;20.638;2023-12-20T11:59:45;9.93;;;5.00;;
55993;SDS011;67425;52.126;20.638;2023-12-20T12:02:14;7.93;;;4.43;;
55993;SDS011;67425;52.126;20.638;2023-12-20T12:04:42;6.00;;;4.32;;
55993;SDS011;67425;52.126;20.638;2023-12-20T12:07:08;6.82;;;4.47;;
55993;SDS011;67425;52.126;20.638;2023-12-20T12:09:34;4.30;;;3.42;;
55993;SDS011;67425;52.126;20.638;2023-12-20T12:11:59;6.18;;;4.40;;
55993;SDS011;67425;52.126;20.638;2023-12-20T12:14:25;6.45;;;4.63;;
55993;SDS011;67425;52.126;20.638;2023-12-20T12:16:50;6.57;;;4.15;;
55993;SDS011;67425;52.126;20.638;2023-12-20T12:19:24;7.15;;;4.60;;
55993;SDS011;67425;52.126;20.638;2023-12-20T12:21:51;6.63;;;4.00;;
55993;SDS011;67425;52.126;20.638;2023-12-20T12:24:29;10.40;;;4.40;;
55993;SDS011;67425;52.126;20.638;2023-12-20T12:26:56;7.22;;;3.78;;
55993;SDS011;67425;52.126;20.638;2023-12-20T12:29:22;6.32;;;4.03;;
55993;SDS011;67425;52.126;20.638;2023-12-20T12:31:49;4.85;;;3.72;;
55993;SDS011;67425;52.126;20.638;2023-12-20T12:34:15;10.07;;;4.47;;
55993;SDS011;67425;52.126;20.638;2023-12-20T12:36:41;6.35;;;3.92;;
55993;SDS011;67425;52.126;20.638;2023-12-20T12:39:06;5.22;;;3.05;;
55993;SDS011;67425;52.126;20.638;2023-12-20T12:41:32;4.60;;;3.80;;
55993;SDS011;67425;52.126;20.638;2023-12-20T12:43:57;10.27;;;3.78;;
55993;SDS011;67425;52.126;20.638;2023-12-20T12:46:23;4.82;;;4.38;;
55993;SDS011;67425;52.126;20.638;2023-12-20T12:48:48;11.32;;;4.65;;
55993;SDS011;67425;52.126;20.638;2023-12-20T12:51:15;6.93;;;4.10;;
55993;SDS011;67425;52.126;20.638;2023-12-20T12:53:41;6.20;;;4.63;;
55993;SDS011;67425;52.126;20.638;2023-12-20T12:56:06;7.13;;;4.60;;
55993;SDS011;67425;52.126;20.638;2023-12-20T12:58:33;12.43;;;6.50;;
55993;SDS011;67425;52.126;20.638;2023-12-20T13:00:59;14.68;;;5.72;;
55993;SDS011;67425;52.126;20.638;2023-12-20T13:03:24;9.77;;;6.72;;
55993;SDS011;67425;52.126;20.638;2023-12-20T13:05:49;9.23;;;4.95;;
55993;SDS011;67425;52.126;20.638;2023-12-20T13:08:15;10.57;;;5.05;;
55993;SDS011;67425;52.126;20.638;2023-12-20T13:10:41;12.88;;;5.70;;
55993;SDS011;67425;52.126;20.638;2023-12-20T13:13:06;11.68;;;5.55;;
55993;SDS011;67425;52.126;20.638;2023-12-20T13:15:31;7.65;;;4.90;;
55993;SDS011;67425;52.126;20.638;2023-12-20T13:17:57;10.65;;;5.03;;
55993;SDS011;67425;52.126;20.638;2023-12-20T13:20:22;8.20;;;4.50;;
55993;SDS011;67425;52.126;20.638;2023-12-20T13:22:48;7.30;;;5.55;;
55993;SDS011;67425;52.126;20.638;2023-12-20T13:25:13;10.65;;;5.43;;
55993;SDS011;67425;52.126;20.638;2023-12-20T13:27:38;10.35;;;5.43;;
55993;SDS011;67425;52.126;20.638;2023-12-20T13:30:04;8.63;;;6.35;;
55993;SDS011;67425;52.126;20.638;2023-12-20T13:32:30;9.98;;;5.57;;
55993;SDS011;67425;52.126;20.638;2023-12-20T13:34:56;10.27;;;6.15;;
55993;SDS011;67425;52.126;20.638;2023-12-20T13:37:21;12.15;;;5.50;;
55993;SDS011;67425;52.126;20.638;2023-12-20T13:39:47;6.70;;;4.75;;
55993;SDS011;67425;52.126;20.638;2023-12-20T13:42:13;6.22;;;5.03;;
55993;SDS011;67425;52.126;20.638;2023-12-20T13:44:38;8.93;;;4.82;;
55993;SDS011;67425;52.126;20.638;2023-12-20T13:47:03;11.05;;;4.95;;
55993;SDS011;67425;52.126;20.638;2023-12-20T13:49:29;5.78;;;4.78;;
55993;SDS011;67425;52.126;20.638;2023-12-20T13:51:54;8.15;;;4.38;;
55993;SDS011;67425;52.126;20.638;2023-12-20T13:54:20;11.00;;;4.93;;
55993;SDS011;67425;52.126;20.638;2023-12-20T13:56:47;6.25;;;4.38;;
55993;SDS011;67425;52.126;20.638;2023-12-20T13:59:12;5.05;;;4.03;;
55993;SDS011;67425;52.126;20.638;2023-12-20T14:01:39;11.45;;;5.43;;
55993;SDS011;67425;52.126;20.638;2023-12-20T14:04:04;8.63;;;3.88;;
55993;SDS011;67425;52.126;20.638;2023-12-20T14:06:29;6.68;;;4.63;;
55993;SDS011;67425;52.126;20.638;2023-12-20T14:08:55;19.60;;;4.72;;
55993;SDS011;67425;52.126;20.638;2023-12-20T14:11:20;9.15;;;3.28;;
55993;SDS011;67425;52.126;20.638;2023-12-20T14:13:46;7.05;;;3.45;;
55993;SDS011;67425;52.126;20.638;2023-12-20T14:16:11;5.93;;;3.75;;
55993;SDS011;67425;52.126;20.638;2023-12-20T14:18:37;3.75;;;3.25;;
55993;SDS011;67425;52.126;20.638;2023-12-20T14:21:03;15.75;;;4.53;;
55993;SDS011;67425;52.126;20.638;2023-12-20T14:23:30;5.30;;;3.78;;